sensor_id;sensor_type;location;lat;lon;timestamp;P1;durP1;ratioP1;P2;durP2;ratioP2
18320;SDS011;54904;54.350;18.664;2023-02-10T00:01:20;15.67;;;7.53;;
18320;SDS011;54904;54.350;18.664;2023-02-10T00:03:48;17.63;;;8.17;;
18320;SDS011;54904;54.350;18.664;2023-02-10T00:06:15;13.77;;;7.83;;
18320;SDS011;54904;54.350;18.664;2023-02-10T00:08:45;14.40;;;7.77;;
18320;SDS011;54904;54.350;18.664;2023-02-10T00:11:16;18.13;;;8.63;;
18320;SDS011;54904;54.350;18.664;2023-02-10T00:13:43;15.27;;;8.20;;
18320;SDS011;54904;54.350;18.664;2023-02-10T00:16:14;15.60;;;7.27;;
18320;SDS011;54904;54.350;18.664;2023-02-10T00:18:41;17.10;;;8.73;;
18320;SDS011;54904;54.350;18.664;2023-02-10T00:21:09;17.80;;;8.70;;
18320;SDS011;54904;54.350;18.664;2023-02-10T00:23:38;17.60;;;7.73;;
18320;SDS011;54904;54.350;18.664;2023-02-10T00:26:06;19.50;;;8.47;;
18320;SDS011;54904;54.350;18.664;2023-02-10T00:28:35;18.53;;;8.93;;
18320;SDS011;54904;54.350;18.664;2023-02-10T00:31:04;21.90;;;9.27;;
18320;SDS011;54904;54.350;18.664;2023-02-10T00:33:34;14.70;;;7.83;;
18320;SDS011;54904;54.350;18.664;2023-02-10T00:36:02;16.53;;;8.27;;
18320;SDS011;54904;54.350;18.664;2023-02-10T00:38:30;19.37;;;9.10;;
18320;SDS011;54904;54.350;18.664;2023-02-10T00:41:01;18.67;;;9.47;;
18320;SDS011;54904;54.350;18.664;2023-02-10T00:43:29;16.93;;;8.60;;
18320;SDS011;54904;54.350;18.664;2023-02-10T00:45:56;13.93;;;7.20;;
18320;SDS011;54904;54.350;18.664;2023-02-10T00:48:23;18.10;;;8.77;;
18320;SDS011;54904;54.350;18.664;2023-02-10T00:50:52;17.23;;;8.37;;
18320;SDS011;54904;54.350;18.664;2023-02-10T00:53:19;17.00;;;8.70;;
18320;SDS011;54904;54.350;18.664;2023-02-10T00:55:47;18.83;;;8.20;;
18320;SDS011;54904;54.350;18.664;2023-02-10T00:58:15;18.93;;;9.23;;
18320;SDS011;54904;54.350;18.664;2023-02-10T01:00:42;18.77;;;9.03;;
18320;SDS011;54904;54.350;18.664;2023-02-10T01:03:09;17.57;;;8.43;;
18320;SDS011;54904;54.350;18.664;2023-02-10T01:05:38;18.13;;;8.40;;
18320;SDS011;54904;54.350;18.664;2023-02-10T01:08:07;17.47;;;9.13;;
18320;SDS011;54904;54.350;18.664;2023-02-10T01:10:34;15.03;;;7.93;;
18320;SDS011;54904;54.350;18.664;2023-02-10T01:13:01;20.53;;;8.93;;
18320;SDS011;54904;54.350;18.664;2023-02-10T01:15:29;18.07;;;9.80;;
18320;SDS011;54904;54.350;18.664;2023-02-10T01:17:56;24.83;;;10.03;;
18320;SDS011;54904;54.350;18.664;2023-02-10T01:20:24;26.73;;;11.20;;
18320;SDS011;54904;54.350;18.664;2023-02-10T01:22:51;20.60;;;10.40;;
18320;SDS011;54904;54.350;18.664;2023-02-10T01:25:20;22.83;;;10.00;;
18320;SDS011;54904;54.350;18.664;2023-02-10T01:27:49;20.03;;;9.30;;
18320;SDS011;54904;54.350;18.664;2023-02-10T01:30:16;21.60;;;10.47;;
18320;SDS011;54904;54.350;18.664;2023-02-10T01:32:43;19.17;;;10.13;;
18320;SDS011;54904;54.350;18.664;2023-02-10T01:35:10;21.40;;;9.87;;
18320;SDS011;54904;54.350;18.664;2023-02-10T01:37:37;24.37;;;10.57;;
18320;SDS011;54904;54.350;18.664;2023-02-10T01:40:06;18.70;;;9.03;;
18320;SDS011;54904;54.350;18.664;2023-02-10T01:42:36;22.10;;;10.57;;
18320;SDS011;54904;54.350;18.664;2023-02-10T01:45:11;20.87;;;9.67;;
18320;SDS011;54904;54.350;18.664;2023-02-10T01:47:43;17.50;;;8.80;;
18320;SDS011;54904;54.350;18.664;2023-02-10T01:50:13;18.83;;;8.60;;
18320;SDS011;54904;54.350;18.664;2023-02-10T01:52:41;22.87;;;9.67;;
18320;SDS011;54904;54.350;18.664;2023-02-10T01:55:10;17.83;;;9.37;;
18320;SDS011;54904;54.350;18.664;2023-02-10T01:57:44;19.57;;;8.90;;
18320;SDS011;54904;54.350;18.664;2023-02-10T02:00:14;20.53;;;8.70;;
18320;SDS011;54904;54.350;18.664;2023-02-10T02:02:42;18.03;;;8.43;;
18320;SDS011;54904;54.350;18.664;2023-02-10T02:05:27;17.63;;;8.83;;
18320;SDS011;54904;54.350;18.664;2023-02-10T02:07:57;16.50;;;8.60;;
18320;SDS011;54904;54.350;18.664;2023-02-10T02:10:32;20.83;;;9.53;;
18320;SDS011;54904;54.350;18.664;2023-02-10T02:13:17;20.63;;;8.73;;
18320;SDS011;54904;54.350;18.664;2023-02-10T02:15:54;19.23;;;8.63;;
18320;SDS011;54904;54.350;18.664;2023-02-10T02:18:29;18.83;;;9.27;;
18320;SDS011;54904;54.350;18.664;2023-02-10T02:21:18;23.07;;;9.50;;
18320;SDS011;54904;54.350;18.664;2023-02-10T02:24:31;17.47;;;8.57;;
18320;SDS011;54904;54.350;18.664;2023-02-10T02:27:14;21.63;;;9.87;;
18320;SDS011;54904;54.350;18.664;2023-02-10T02:30:06;24.07;;;9.83;;
18320;SDS011;54904;54.350;18.664;2023-02-10T02:32:57;15.77;;;8.30;;
18320;SDS011;54904;54.350;18.664;2023-02-10T02:35:31;16.17;;;7.70;;
18320;SDS011;54904;54.350;18.664;2023-02-10T02:38:03;15.37;;;7.97;;
18320;SDS011;54904;54.350;18.664;2023-02-10T02:40:31;18.83;;;9.00;;
18320;SDS011;54904;54.350;18.664;2023-02-10T02:42:59;17.60;;;8.03;;
18320;SDS011;54904;54.350;18.664;2023-02-10T02:45:28;18.47;;;7.97;;
18320;SDS011;54904;54.350;18.664;2023-02-10T02:48:07;16.30;;;8.10;;
18320;SDS011;54904;54.350;18.664;2023-02-10T02:50:44;19.23;;;9.20;;
18320;SDS011;54904;54.350;18.664;2023-02-10T02:53:17;13.97;;;7.47;;
18320;SDS011;54904;54.350;18.664;2023-02-10T02:55:55;21.97;;;9.03;;
18320;SDS011;54904;54.350;18.664;2023-02-10T02:58:31;16.17;;;7.50;;
18320;SDS011;54904;54.350;18.664;2023-02-10T03:01:07;16.83;;;8.00;;
18320;SDS011;54904;54.350;18.664;2023-02-10T03:03:40;15.00;;;8.07;;
18320;SDS011;54904;54.350;18.664;2023-02-10T03:06:08;18.03;;;8.00;;
18320;SDS011;54904;54.350;18.664;2023-02-10T03:08:36;21.00;;;8.53;;
18320;SDS011;54904;54.350;18.664;2023-02-10T03:11:05;15.20;;;7.57;;
18320;SDS011;54904;54.350;18.664;2023-02-10T03:13:35;15.77;;;7.13;;
18320;SDS011;54904;54.350;18.664;2023-02-10T03:16:03;14.97;;;7.40;;
18320;SDS011;54904;54.350;18.664;2023-02-10T03:18:31;17.40;;;7.43;;
18320;SDS011;54904;54.350;18.664;2023-02-10T03:20:59;16.07;;;8.27;;
18320;SDS011;54904;54.350;18.664;2023-02-10T03:23:27;15.27;;;7.43;;
18320;SDS011;54904;54.350;18.664;2023-02-10T03:25:54;17.10;;;8.13;;
18320;SDS011;54904;54.350;18.664;2023-02-10T03:28:24;14.63;;;7.50;;
18320;SDS011;54904;54.350;18.664;2023-02-10T03:30:51;16.93;;;7.50;;
18320;SDS011;54904;54.350;18.664;2023-02-10T03:33:19;25.67;;;8.77;;
18320;SDS011;54904;54.350;18.664;2023-02-10T03:35:46;16.57;;;7.63;;
18320;SDS011;54904;54.350;18.664;2023-02-10T03:38:15;13.53;;;7.40;;
18320;SDS011;54904;54.350;18.664;2023-02-10T03:40:43;15.03;;;7.67;;
18320;SDS011;54904;54.350;18.664;2023-02-10T03:43:10;12.57;;;6.30;;
18320;SDS011;54904;54.350;18.664;2023-02-10T03:45:38;16.93;;;7.60;;
18320;SDS011;54904;54.350;18.664;2023-02-10T03:48:06;15.93;;;7.50;;
18320;SDS011;54904;54.350;18.664;2023-02-10T03:50:34;16.13;;;7.27;;
18320;SDS011;54904;54.350;18.664;2023-02-10T03:53:01;15.73;;;7.60;;
18320;SDS011;54904;54.350;18.664;2023-02-10T03:55:31;16.00;;;7.83;;
18320;SDS011;54904;54.350;18.664;2023-02-10T03:57:59;18.43;;;8.33;;
18320;SDS011;54904;54.350;18.664;2023-02-10T04:00:27;13.83;;;7.87;;
18320;SDS011;54904;54.350;18.664;2023-02-10T04:02:55;17.43;;;8.23;;
18320;SDS011;54904;54.350;18.664;2023-02-10T04:05:22;19.33;;;8.53;;
18320;SDS011;54904;54.350;18.664;2023-02-10T04:07:50;16.63;;;7.60;;
18320;SDS011;54904;54.350;18.664;2023-02-10T04:10:17;15.53;;;8.00;;
18320;SDS011;54904;54.350;18.664;2023-02-10T04:12:47;15.83;;;7.20;;
18320;SDS011;54904;54.350;18.664;2023-02-10T04:15:14;13.33;;;6.60;;
18320;SDS011;54904;54.350;18.664;2023-02-10T04:17:44;13.73;;;6.80;;
18320;SDS011;54904;54.350;18.664;2023-02-10T04:20:11;16.27;;;8.00;;
18320;SDS011;54904;54.350;18.664;2023-02-10T04:22:39;19.40;;;7.70;;
18320;SDS011;54904;54.350;18.664;2023-02-10T04:25:07;14.97;;;7.33;;
18320;SDS011;54904;54.350;18.664;2023-02-10T04:27:36;10.53;;;6.10;;
18320;SDS011;54904;54.350;18.664;2023-02-10T04:30:05;13.67;;;6.70;;
18320;SDS011;54904;54.350;18.664;2023-02-10T04:32:33;15.63;;;6.60;;
18320;SDS011;54904;54.350;18.664;2023-02-10T04:35:01;18.57;;;7.50;;
18320;SDS011;54904;54.350;18.664;2023-02-10T04:37:29;14.63;;;7.73;;
18320;SDS011;54904;54.350;18.664;2023-02-10T04:39:56;19.40;;;7.93;;
18320;SDS011;54904;54.350;18.664;2023-02-10T04:42:23;14.63;;;7.33;;
18320;SDS011;54904;54.350;18.664;2023-02-10T04:44:55;16.97;;;7.47;;
18320;SDS011;54904;54.350;18.664;2023-02-10T04:47:24;14.00;;;6.90;;
18320;SDS011;54904;54.350;18.664;2023-02-10T04:49:52;12.87;;;6.30;;
18320;SDS011;54904;54.350;18.664;2023-02-10T04:52:20;15.07;;;7.60;;
18320;SDS011;54904;54.350;18.664;2023-02-10T04:54:48;15.27;;;7.73;;
18320;SDS011;54904;54.350;18.664;2023-02-10T04:57:15;13.73;;;6.90;;
18320;SDS011;54904;54.350;18.664;2023-02-10T04:59:42;17.73;;;8.23;;
18320;SDS011;54904;54.350;18.664;2023-02-10T05:02:09;17.43;;;7.10;;
18320;SDS011;54904;54.350;18.664;2023-02-10T05:04:38;19.53;;;8.33;;
18320;SDS011;54904;54.350;18.664;2023-02-10T05:07:05;18.43;;;7.57;;
18320;SDS011;54904;54.350;18.664;2023-02-10T05:09:33;14.37;;;7.70;;
18320;SDS011;54904;54.350;18.664;2023-02-10T05:12:00;13.83;;;6.33;;
18320;SDS011;54904;54.350;18.664;2023-02-10T05:14:27;19.07;;;7.73;;
18320;SDS011;54904;54.350;18.664;2023-02-10T05:16:54;12.47;;;6.37;;
18320;SDS011;54904;54.350;18.664;2023-02-10T05:19:22;20.47;;;7.93;;
18320;SDS011;54904;54.350;18.664;2023-02-10T05:21:50;16.07;;;7.60;;
18320;SDS011;54904;54.350;18.664;2023-02-10T05:24:18;14.07;;;7.03;;
18320;SDS011;54904;54.350;18.664;2023-02-10T05:26:45;15.70;;;7.00;;
18320;SDS011;54904;54.350;18.664;2023-02-10T05:29:12;15.43;;;7.33;;
18320;SDS011;54904;54.350;18.664;2023-02-10T05:31:39;15.93;;;7.47;;
18320;SDS011;54904;54.350;18.664;2023-02-10T05:34:07;18.70;;;7.23;;
18320;SDS011;54904;54.350;18.664;2023-02-10T05:36:34;21.00;;;8.20;;
18320;SDS011;54904;54.350;18.664;2023-02-10T05:39:02;21.70;;;7.87;;
18320;SDS011;54904;54.350;18.664;2023-02-10T05:41:47;18.73;;;7.57;;
18320;SDS011;54904;54.350;18.664;2023-02-10T05:44:14;21.60;;;7.67;;
18320;SDS011;54904;54.350;18.664;2023-02-10T05:46:42;17.57;;;7.63;;
18320;SDS011;54904;54.350;18.664;2023-02-10T05:49:09;17.90;;;7.50;;
18320;SDS011;54904;54.350;18.664;2023-02-10T05:51:36;20.70;;;8.40;;
18320;SDS011;54904;54.350;18.664;2023-02-10T05:54:05;18.90;;;8.00;;
18320;SDS011;54904;54.350;18.664;2023-02-10T05:56:32;19.80;;;8.77;;
18320;SDS011;54904;54.350;18.664;2023-02-10T05:59:00;18.67;;;7.80;;
18320;SDS011;54904;54.350;18.664;2023-02-10T06:01:27;15.80;;;7.70;;
18320;SDS011;54904;54.350;18.664;2023-02-10T06:03:54;18.40;;;8.67;;
18320;SDS011;54904;54.350;18.664;2023-02-10T06:06:21;23.60;;;8.50;;
18320;SDS011;54904;54.350;18.664;2023-02-10T06:08:49;20.23;;;8.47;;
18320;SDS011;54904;54.350;18.664;2023-02-10T06:11:17;20.37;;;8.17;;
18320;SDS011;54904;54.350;18.664;2023-02-10T06:13:45;24.83;;;9.37;;
18320;SDS011;54904;54.350;18.664;2023-02-10T06:16:12;17.50;;;7.97;;
18320;SDS011;54904;54.350;18.664;2023-02-10T06:18:39;12.00;;;6.60;;
18320;SDS011;54904;54.350;18.664;2023-02-10T06:21:07;17.83;;;7.60;;
18320;SDS011;54904;54.350;18.664;2023-02-10T06:23:35;16.27;;;7.00;;
18320;SDS011;54904;54.350;18.664;2023-02-10T06:26:02;16.33;;;7.80;;
18320;SDS011;54904;54.350;18.664;2023-02-10T06:28:30;11.87;;;6.13;;
18320;SDS011;54904;54.350;18.664;2023-02-10T06:30:57;14.93;;;6.40;;
18320;SDS011;54904;54.350;18.664;2023-02-10T06:33:28;13.93;;;6.03;;
18320;SDS011;54904;54.350;18.664;2023-02-10T06:35:55;15.90;;;7.17;;
18320;SDS011;54904;54.350;18.664;2023-02-10T06:38:22;21.03;;;7.67;;
18320;SDS011;54904;54.350;18.664;2023-02-10T06:40:49;17.47;;;6.50;;
18320;SDS011;54904;54.350;18.664;2023-02-10T06:43:17;19.83;;;7.40;;
18320;SDS011;54904;54.350;18.664;2023-02-10T06:45:45;16.43;;;6.87;;
18320;SDS011;54904;54.350;18.664;2023-02-10T06:48:12;18.70;;;7.03;;
18320;SDS011;54904;54.350;18.664;2023-02-10T06:50:39;13.57;;;6.73;;
18320;SDS011;54904;54.350;18.664;2023-02-10T06:53:08;16.47;;;6.67;;
18320;SDS011;54904;54.350;18.664;2023-02-10T06:55:35;15.87;;;6.40;;
18320;SDS011;54904;54.350;18.664;2023-02-10T06:58:03;16.50;;;6.37;;
18320;SDS011;54904;54.350;18.664;2023-02-10T07:00:30;12.50;;;6.23;;
18320;SDS011;54904;54.350;18.664;2023-02-10T07:02:59;15.80;;;6.27;;
18320;SDS011;54904;54.350;18.664;2023-02-10T07:05:27;16.43;;;6.97;;
18320;SDS011;54904;54.350;18.664;2023-02-10T07:07:54;21.00;;;7.47;;
18320;SDS011;54904;54.350;18.664;2023-02-10T07:10:23;19.03;;;6.90;;
18320;SDS011;54904;54.350;18.664;2023-02-10T07:12:51;16.60;;;7.07;;
18320;SDS011;54904;54.350;18.664;2023-02-10T07:15:18;11.30;;;5.50;;
18320;SDS011;54904;54.350;18.664;2023-02-10T07:17:48;14.00;;;5.83;;
18320;SDS011;54904;54.350;18.664;2023-02-10T07:20:17;17.63;;;6.57;;
18320;SDS011;54904;54.350;18.664;2023-02-10T07:22:45;16.23;;;6.77;;
18320;SDS011;54904;54.350;18.664;2023-02-10T07:25:13;18.37;;;6.53;;
18320;SDS011;54904;54.350;18.664;2023-02-10T07:27:40;18.83;;;6.60;;
18320;SDS011;54904;54.350;18.664;2023-02-10T07:30:08;18.57;;;6.80;;
18320;SDS011;54904;54.350;18.664;2023-02-10T07:32:38;20.87;;;7.17;;
18320;SDS011;54904;54.350;18.664;2023-02-10T07:35:07;23.37;;;6.83;;
18320;SDS011;54904;54.350;18.664;2023-02-10T07:37:36;17.80;;;7.30;;
18320;SDS011;54904;54.350;18.664;2023-02-10T07:40:04;20.47;;;6.77;;
18320;SDS011;54904;54.350;18.664;2023-02-10T07:42:32;16.63;;;6.60;;
18320;SDS011;54904;54.350;18.664;2023-02-10T07:45:23;15.83;;;6.10;;
18320;SDS011;54904;54.350;18.664;2023-02-10T07:47:51;16.07;;;5.87;;
18320;SDS011;54904;54.350;18.664;2023-02-10T07:50:18;19.43;;;6.00;;
18320;SDS011;54904;54.350;18.664;2023-02-10T07:52:47;15.93;;;5.70;;
18320;SDS011;54904;54.350;18.664;2023-02-10T07:55:14;19.23;;;6.53;;
18320;SDS011;54904;54.350;18.664;2023-02-10T07:57:42;12.03;;;5.23;;
18320;SDS011;54904;54.350;18.664;2023-02-10T08:00:10;13.77;;;5.17;;
18320;SDS011;54904;54.350;18.664;2023-02-10T08:02:38;15.27;;;5.57;;
18320;SDS011;54904;54.350;18.664;2023-02-10T08:05:05;15.30;;;5.30;;
18320;SDS011;54904;54.350;18.664;2023-02-10T08:07:33;13.30;;;5.60;;
18320;SDS011;54904;54.350;18.664;2023-02-10T08:10:02;15.90;;;5.93;;
18320;SDS011;54904;54.350;18.664;2023-02-10T08:12:29;14.33;;;5.33;;
18320;SDS011;54904;54.350;18.664;2023-02-10T08:14:57;15.20;;;5.03;;
18320;SDS011;54904;54.350;18.664;2023-02-10T08:17:25;18.83;;;5.87;;
18320;SDS011;54904;54.350;18.664;2023-02-10T08:19:53;11.47;;;4.53;;
18320;SDS011;54904;54.350;18.664;2023-02-10T08:22:24;13.77;;;4.67;;
18320;SDS011;54904;54.350;18.664;2023-02-10T08:24:51;14.60;;;5.17;;
18320;SDS011;54904;54.350;18.664;2023-02-10T08:27:19;13.43;;;5.10;;
18320;SDS011;54904;54.350;18.664;2023-02-10T08:29:47;9.10;;;4.13;;
18320;SDS011;54904;54.350;18.664;2023-02-10T08:32:14;18.13;;;5.13;;
18320;SDS011;54904;54.350;18.664;2023-02-10T08:34:44;19.33;;;5.90;;
18320;SDS011;54904;54.350;18.664;2023-02-10T08:37:12;17.73;;;5.13;;
18320;SDS011;54904;54.350;18.664;2023-02-10T08:39:39;12.90;;;5.40;;
18320;SDS011;54904;54.350;18.664;2023-02-10T08:42:06;18.10;;;5.87;;
18320;SDS011;54904;54.350;18.664;2023-02-10T08:44:35;20.20;;;6.53;;
18320;SDS011;54904;54.350;18.664;2023-02-10T08:47:02;14.77;;;5.47;;
18320;SDS011;54904;54.350;18.664;2023-02-10T08:49:31;13.40;;;4.97;;
18320;SDS011;54904;54.350;18.664;2023-02-10T08:51:58;12.57;;;4.83;;
18320;SDS011;54904;54.350;18.664;2023-02-10T08:54:25;13.43;;;5.33;;
18320;SDS011;54904;54.350;18.664;2023-02-10T08:56:53;17.77;;;5.73;;
18320;SDS011;54904;54.350;18.664;2023-02-10T08:59:20;18.50;;;6.40;;
18320;SDS011;54904;54.350;18.664;2023-02-10T09:01:49;14.63;;;5.30;;
18320;SDS011;54904;54.350;18.664;2023-02-10T09:04:17;13.57;;;5.20;;
18320;SDS011;54904;54.350;18.664;2023-02-10T09:06:44;14.23;;;5.13;;
18320;SDS011;54904;54.350;18.664;2023-02-10T09:09:12;20.73;;;5.50;;
18320;SDS011;54904;54.350;18.664;2023-02-10T09:11:45;17.90;;;5.80;;
18320;SDS011;54904;54.350;18.664;2023-02-10T09:14:13;14.30;;;4.73;;
18320;SDS011;54904;54.350;18.664;2023-02-10T09:16:43;13.93;;;4.97;;
18320;SDS011;54904;54.350;18.664;2023-02-10T09:19:11;9.83;;;4.23;;
18320;SDS011;54904;54.350;18.664;2023-02-10T09:21:39;16.13;;;5.10;;
18320;SDS011;54904;54.350;18.664;2023-02-10T09:24:06;12.93;;;4.33;;
18320;SDS011;54904;54.350;18.664;2023-02-10T09:26:33;14.63;;;5.33;;
18320;SDS011;54904;54.350;18.664;2023-02-10T09:29:00;15.20;;;4.73;;
18320;SDS011;54904;54.350;18.664;2023-02-10T09:31:30;17.60;;;4.93;;
18320;SDS011;54904;54.350;18.664;2023-02-10T09:33:59;13.97;;;4.87;;
18320;SDS011;54904;54.350;18.664;2023-02-10T09:36:28;19.47;;;5.13;;
18320;SDS011;54904;54.350;18.664;2023-02-10T09:38:55;9.80;;;4.43;;
18320;SDS011;54904;54.350;18.664;2023-02-10T09:41:31;17.83;;;5.40;;
18320;SDS011;54904;54.350;18.664;2023-02-10T09:44:09;13.27;;;5.33;;
18320;SDS011;54904;54.350;18.664;2023-02-10T09:46:51;18.00;;;5.47;;
18320;SDS011;54904;54.350;18.664;2023-02-10T09:52:44;18.03;;;5.27;;
18320;SDS011;54904;54.350;18.664;2023-02-10T09:55:22;18.43;;;4.93;;
18320;SDS011;54904;54.350;18.664;2023-02-10T09:57:55;19.57;;;6.23;;
18320;SDS011;54904;54.350;18.664;2023-02-10T10:00:26;19.93;;;5.73;;
18320;SDS011;54904;54.350;18.664;2023-02-10T10:02:56;22.43;;;7.03;;
18320;SDS011;54904;54.350;18.664;2023-02-10T10:05:33;19.57;;;6.00;;
18320;SDS011;54904;54.350;18.664;2023-02-10T10:08:14;18.53;;;6.03;;
18320;SDS011;54904;54.350;18.664;2023-02-10T10:10:48;21.27;;;6.17;;
18320;SDS011;54904;54.350;18.664;2023-02-10T10:13:18;20.20;;;6.17;;
18320;SDS011;54904;54.350;18.664;2023-02-10T10:15:54;21.50;;;6.17;;
18320;SDS011;54904;54.350;18.664;2023-02-10T10:18:35;18.30;;;6.37;;
18320;SDS011;54904;54.350;18.664;2023-02-10T10:21:26;19.67;;;5.83;;
18320;SDS011;54904;54.350;18.664;2023-02-10T10:24:09;11.57;;;5.10;;
18320;SDS011;54904;54.350;18.664;2023-02-10T10:26:49;16.83;;;5.27;;
18320;SDS011;54904;54.350;18.664;2023-02-10T10:29:25;21.53;;;5.90;;
18320;SDS011;54904;54.350;18.664;2023-02-10T10:32:01;22.23;;;6.67;;
18320;SDS011;54904;54.350;18.664;2023-02-10T10:34:39;15.50;;;5.77;;
18320;SDS011;54904;54.350;18.664;2023-02-10T10:37:12;14.53;;;5.23;;
18320;SDS011;54904;54.350;18.664;2023-02-10T10:39:45;12.27;;;5.10;;
18320;SDS011;54904;54.350;18.664;2023-02-10T10:42:19;13.63;;;5.07;;
18320;SDS011;54904;54.350;18.664;2023-02-10T10:44:50;13.13;;;5.27;;
18320;SDS011;54904;54.350;18.664;2023-02-10T10:47:25;13.13;;;5.17;;
18320;SDS011;54904;54.350;18.664;2023-02-10T10:50:05;11.50;;;5.17;;
18320;SDS011;54904;54.350;18.664;2023-02-10T10:52:33;18.40;;;5.30;;
18320;SDS011;54904;54.350;18.664;2023-02-10T10:55:05;8.80;;;4.37;;
18320;SDS011;54904;54.350;18.664;2023-02-10T10:57:39;15.63;;;5.13;;
18320;SDS011;54904;54.350;18.664;2023-02-10T11:00:13;9.60;;;4.10;;
18320;SDS011;54904;54.350;18.664;2023-02-10T11:02:54;15.57;;;4.30;;
18320;SDS011;54904;54.350;18.664;2023-02-10T11:05:26;11.47;;;3.93;;
18320;SDS011;54904;54.350;18.664;2023-02-10T11:07:56;5.73;;;2.90;;
18320;SDS011;54904;54.350;18.664;2023-02-10T11:10:26;9.67;;;3.00;;
18320;SDS011;54904;54.350;18.664;2023-02-10T11:12:59;6.97;;;3.10;;
18320;SDS011;54904;54.350;18.664;2023-02-10T11:15:32;7.63;;;2.77;;
18320;SDS011;54904;54.350;18.664;2023-02-10T11:18:04;7.37;;;2.33;;
18320;SDS011;54904;54.350;18.664;2023-02-10T11:20:34;7.13;;;2.70;;
18320;SDS011;54904;54.350;18.664;2023-02-10T11:23:03;6.70;;;2.33;;
18320;SDS011;54904;54.350;18.664;2023-02-10T11:25:45;8.17;;;2.30;;
18320;SDS011;54904;54.350;18.664;2023-02-10T11:28:17;7.70;;;2.07;;
18320;SDS011;54904;54.350;18.664;2023-02-10T11:30:47;4.83;;;1.90;;
18320;SDS011;54904;54.350;18.664;2023-02-10T11:33:21;8.90;;;2.50;;
18320;SDS011;54904;54.350;18.664;2023-02-10T11:35:49;6.03;;;2.30;;
18320;SDS011;54904;54.350;18.664;2023-02-10T11:38:20;13.13;;;3.27;;
18320;SDS011;54904;54.350;18.664;2023-02-10T11:40:52;12.30;;;3.03;;
18320;SDS011;54904;54.350;18.664;2023-02-10T11:43:28;11.63;;;2.43;;
18320;SDS011;54904;54.350;18.664;2023-02-10T11:45:57;9.10;;;2.93;;
18320;SDS011;54904;54.350;18.664;2023-02-10T11:48:29;11.80;;;3.23;;
18320;SDS011;54904;54.350;18.664;2023-02-10T11:51:00;7.17;;;2.53;;
18320;SDS011;54904;54.350;18.664;2023-02-10T11:53:29;11.00;;;3.10;;
18320;SDS011;54904;54.350;18.664;2023-02-10T11:56:01;11.70;;;2.87;;
18320;SDS011;54904;54.350;18.664;2023-02-10T11:58:41;5.43;;;2.03;;
18320;SDS011;54904;54.350;18.664;2023-02-10T12:01:29;8.07;;;2.60;;
18320;SDS011;54904;54.350;18.664;2023-02-10T12:07:13;7.80;;;2.33;;
18320;SDS011;54904;54.350;18.664;2023-02-10T12:09:48;5.30;;;2.40;;
18320;SDS011;54904;54.350;18.664;2023-02-10T12:12:24;8.20;;;2.40;;
18320;SDS011;54904;54.350;18.664;2023-02-10T12:15:01;10.00;;;3.03;;
18320;SDS011;54904;54.350;18.664;2023-02-10T12:17:40;6.43;;;2.20;;
18320;SDS011;54904;54.350;18.664;2023-02-10T12:20:22;7.43;;;2.13;;
18320;SDS011;54904;54.350;18.664;2023-02-10T12:26:01;10.40;;;2.70;;
18320;SDS011;54904;54.350;18.664;2023-02-10T12:28:37;18.83;;;2.77;;
18320;SDS011;54904;54.350;18.664;2023-02-10T12:31:17;8.17;;;2.30;;
18320;SDS011;54904;54.350;18.664;2023-02-10T12:33:56;11.93;;;3.10;;
18320;SDS011;54904;54.350;18.664;2023-02-10T12:36:41;12.53;;;2.80;;
18320;SDS011;54904;54.350;18.664;2023-02-10T12:39:18;12.03;;;2.70;;
18320;SDS011;54904;54.350;18.664;2023-02-10T12:41:52;13.63;;;3.33;;
18320;SDS011;54904;54.350;18.664;2023-02-10T12:44:33;8.97;;;2.50;;
18320;SDS011;54904;54.350;18.664;2023-02-10T12:47:13;9.13;;;3.03;;
18320;SDS011;54904;54.350;18.664;2023-02-10T12:49:58;9.33;;;2.63;;
18320;SDS011;54904;54.350;18.664;2023-02-10T12:52:34;6.50;;;2.50;;
18320;SDS011;54904;54.350;18.664;2023-02-10T12:55:11;12.77;;;3.20;;
18320;SDS011;54904;54.350;18.664;2023-02-10T12:57:43;7.23;;;2.60;;
18320;SDS011;54904;54.350;18.664;2023-02-10T13:00:19;13.20;;;3.43;;
18320;SDS011;54904;54.350;18.664;2023-02-10T13:02:52;11.00;;;3.00;;
18320;SDS011;54904;54.350;18.664;2023-02-10T13:05:23;9.13;;;2.50;;
18320;SDS011;54904;54.350;18.664;2023-02-10T13:07:56;9.83;;;2.57;;
18320;SDS011;54904;54.350;18.664;2023-02-10T13:10:27;9.30;;;2.60;;
18320;SDS011;54904;54.350;18.664;2023-02-10T13:13:00;14.07;;;2.80;;
18320;SDS011;54904;54.350;18.664;2023-02-10T13:15:33;8.90;;;2.37;;
18320;SDS011;54904;54.350;18.664;2023-02-10T13:18:04;4.40;;;2.10;;
18320;SDS011;54904;54.350;18.664;2023-02-10T13:20:44;10.47;;;2.60;;
18320;SDS011;54904;54.350;18.664;2023-02-10T13:23:21;13.90;;;2.97;;
18320;SDS011;54904;54.350;18.664;2023-02-10T13:26:12;10.53;;;2.27;;
18320;SDS011;54904;54.350;18.664;2023-02-10T13:29:02;7.03;;;1.73;;
18320;SDS011;54904;54.350;18.664;2023-02-10T13:31:45;9.37;;;1.93;;
18320;SDS011;54904;54.350;18.664;2023-02-10T13:34:24;8.03;;;2.20;;
18320;SDS011;54904;54.350;18.664;2023-02-10T13:36:57;5.37;;;2.23;;
18320;SDS011;54904;54.350;18.664;2023-02-10T13:39:29;6.00;;;2.07;;
18320;SDS011;54904;54.350;18.664;2023-02-10T13:42:05;8.40;;;2.17;;
18320;SDS011;54904;54.350;18.664;2023-02-10T13:44:36;5.33;;;1.90;;
18320;SDS011;54904;54.350;18.664;2023-02-10T13:47:26;7.00;;;2.07;;
18320;SDS011;54904;54.350;18.664;2023-02-10T13:49:57;4.63;;;2.03;;
18320;SDS011;54904;54.350;18.664;2023-02-10T13:52:28;11.00;;;2.43;;
18320;SDS011;54904;54.350;18.664;2023-02-10T13:55:22;7.63;;;2.37;;
18320;SDS011;54904;54.350;18.664;2023-02-10T13:57:54;8.77;;;2.77;;
18320;SDS011;54904;54.350;18.664;2023-02-10T14:00:23;8.40;;;2.50;;
18320;SDS011;54904;54.350;18.664;2023-02-10T14:03:01;9.43;;;2.30;;
18320;SDS011;54904;54.350;18.664;2023-02-10T14:05:30;8.07;;;2.30;;
18320;SDS011;54904;54.350;18.664;2023-02-10T14:07:59;4.90;;;2.07;;
18320;SDS011;54904;54.350;18.664;2023-02-10T14:10:27;8.80;;;2.40;;
18320;SDS011;54904;54.350;18.664;2023-02-10T14:12:58;6.33;;;2.60;;
18320;SDS011;54904;54.350;18.664;2023-02-10T14:15:28;8.27;;;2.80;;
18320;SDS011;54904;54.350;18.664;2023-02-10T14:17:57;8.87;;;2.20;;
18320;SDS011;54904;54.350;18.664;2023-02-10T14:20:30;10.50;;;2.83;;
18320;SDS011;54904;54.350;18.664;2023-02-10T14:23:00;10.73;;;2.90;;
18320;SDS011;54904;54.350;18.664;2023-02-10T14:25:32;13.20;;;2.77;;
18320;SDS011;54904;54.350;18.664;2023-02-10T14:28:03;9.83;;;2.30;;
18320;SDS011;54904;54.350;18.664;2023-02-10T14:30:34;5.20;;;1.90;;
18320;SDS011;54904;54.350;18.664;2023-02-10T14:33:12;8.97;;;2.77;;
18320;SDS011;54904;54.350;18.664;2023-02-10T14:35:49;12.90;;;3.17;;
18320;SDS011;54904;54.350;18.664;2023-02-10T14:38:22;12.40;;;2.60;;
18320;SDS011;54904;54.350;18.664;2023-02-10T14:40:51;9.97;;;2.33;;
18320;SDS011;54904;54.350;18.664;2023-02-10T14:43:22;14.57;;;3.07;;
18320;SDS011;54904;54.350;18.664;2023-02-10T14:45:52;5.13;;;2.00;;
18320;SDS011;54904;54.350;18.664;2023-02-10T14:48:21;11.73;;;3.00;;
18320;SDS011;54904;54.350;18.664;2023-02-10T14:51:04;8.07;;;2.43;;
18320;SDS011;54904;54.350;18.664;2023-02-10T14:53:35;7.13;;;2.07;;
18320;SDS011;54904;54.350;18.664;2023-02-10T14:56:12;6.00;;;2.13;;